Time;durP1;ratioP1;P1;durP2;ratioP2;P2;SDS_P1;SDS_P2;PMS_P1;PMS_P2;Temp;Humidity;BMP_temperature;BMP_pressure;BME280_temperature;BME280_humidity;BME280_pressure;Samples;Min_cycle;Max_cycle;Signal;HPM_P1;HPM_P2
2023/12/15 00:00:46;;;;;;;10.2;5.9;;;;;;;4.27;100;945.0055;;;;
2023/12/15 00:03:22;;;;;;;9.7;5.7;;;;;;;4.31;100;945.033;;;;
2023/12/15 00:06:11;;;;;;;9.4;5.9;;;;;;;4.31;100;945.0111;;;;
2023/12/15 00:08:41;;;;;;;10.5;6.4;;;;;;;4.3;100;945.0421;;;;
2023/12/15 00:11:30;;;;;;;9.5;6;;;;;;;4.31;100;945.153;;;;
2023/12/15 00:13:54;;;;;;;7.8;5.8;;;;;;;4.3;100;945.1539;;;;
2023/12/15 00:16:21;;;;;;;10.5;6.6;;;;;;;4.3;100;945.2188;;;;
2023/12/15 00:18:47;;;;;;;8.4;5.5;;;;;;;4.33;100;945.2442;;;;
2023/12/15 00:21:34;;;;;;;8.3;5.9;;;;;;;4.35;100;945.2555;;;;
2023/12/15 00:24:08;;;;;;;8.7;6.7;;;;;;;4.31;100;945.2528;;;;
2023/12/15 00:26:35;;;;;;;8.9;6.7;;;;;;;4.28;100;945.2408;;;;
2023/12/15 00:29:00;;;;;;;7.5;5.3;;;;;;;4.33;100;945.2917;;;;
2023/12/15 00:31:25;;;;;;;8.9;5.1;;;;;;;4.33;100;945.275;;;;
2023/12/15 00:33:50;;;;;;;8;5.3;;;;;;;4.3;100;945.3503;;;;
2023/12/15 00:36:20;;;;;;;8.1;5.5;;;;;;;4.33;100;945.3649;;;;
2023/12/15 00:38:57;;;;;;;9.7;5.1;;;;;;;4.29;100;945.4997;;;;
2023/12/15 00:41:36;;;;;;;8.2;5.4;;;;;;;4.35;100;945.5569;;;;
2023/12/15 00:44:09;;;;;;;13.6;11.2;;;;;;;4.39;100;945.5474;;;;
2023/12/15 00:46:35;;;;;;;13.4;11.1;;;;;;;4.3;100;945.6508;;;;
2023/12/15 00:49:00;;;;;;;8.5;5.4;;;;;;;4.36;100;945.6888;;;;
2023/12/15 00:51:25;;;;;;;8.2;6.1;;;;;;;4.43;100;945.7324;;;;
2023/12/15 00:53:50;;;;;;;6.8;6;;;;;;;4.41;100;945.823;;;;
2023/12/15 00:56:16;;;;;;;4.8;4.3;;;;;;;4.33;100;945.7607;;;;
2023/12/15 00:58:40;;;;;;;5.1;3.7;;;;;;;4.35;100;945.8049;;;;
2023/12/15 01:01:07;;;;;;;4.5;3.2;;;;;;;4.36;100;945.7922;;;;
2023/12/15 01:03:34;;;;;;;5.9;4.1;;;;;;;4.37;100;945.8334;;;;
2023/12/15 01:06:15;;;;;;;4.8;4.4;;;;;;;4.31;100;945.9017;;;;
2023/12/15 01:08:37;;;;;;;4.4;4;;;;;;;4.34;100;945.9866;;;;
2023/12/15 01:11:03;;;;;;;3.9;3.3;;;;;;;4.39;100;945.9864;;;;
2023/12/15 01:13:28;;;;;;;4.7;3.7;;;;;;;4.29;100;946.0247;;;;
2023/12/15 01:15:53;;;;;;;3.3;2.7;;;;;;;4.26;100;946.0303;;;;
2023/12/15 01:18:21;;;;;;;3.4;2.7;;;;;;;4.26;100;946.1295;;;;
2023/12/15 01:20:47;;;;;;;3.9;3.2;;;;;;;4.19;100;946.0909;;;;
2023/12/15 01:23:14;;;;;;;3.4;3.1;;;;;;;4.22;100;946.1841;;;;
2023/12/15 01:25:39;;;;;;;3.4;2.9;;;;;;;4.27;100;946.2274;;;;
2023/12/15 01:28:05;;;;;;;4.3;3.2;;;;;;;4.23;100;946.1906;;;;
2023/12/15 01:30:30;;;;;;;4.7;4.1;;;;;;;4.2;100;946.2393;;;;
2023/12/15 01:32:58;;;;;;;4.6;3.8;;;;;;;4.21;100;946.2363;;;;
2023/12/15 01:35:24;;;;;;;4.5;3.4;;;;;;;4.19;100;946.2265;;;;
2023/12/15 01:37:54;;;;;;;4.7;3.1;;;;;;;4.19;100;946.2816;;;;
2023/12/15 01:40:22;;;;;;;4.2;3;;;;;;;4.21;100;946.301;;;;
2023/12/15 01:42:47;;;;;;;3;2.5;;;;;;;4.22;100;946.3462;;;;
2023/12/15 01:45:17;;;;;;;4.3;3.1;;;;;;;4.22;100;946.3217;;;;
2023/12/15 01:47:42;;;;;;;4.6;3.4;;;;;;;4.28;100;946.476;;;;
2023/12/15 01:50:19;;;;;;;7.1;4.7;;;;;;;4.24;100;946.4969;;;;
2023/12/15 01:52:58;;;;;;;7.3;4.8;;;;;;;4.33;100;946.4945;;;;
2023/12/15 01:55:23;;;;;;;7.2;5.3;;;;;;;4.24;100;946.4892;;;;
2023/12/15 01:57:48;;;;;;;4.3;3.2;;;;;;;4.18;100;946.4955;;;;
2023/12/15 02:00:21;;;;;;;3.3;2.4;;;;;;;4.2;100;946.5222;;;;
2023/12/15 02:02:47;;;;;;;2.8;2.3;;;;;;;4.15;100;946.5209;;;;
2023/12/15 02:05:15;;;;;;;3;2.5;;;;;;;4.15;100;946.6153;;;;
2023/12/15 02:07:40;;;;;;;2.7;2.2;;;;;;;4.13;100;946.6209;;;;
2023/12/15 02:10:10;;;;;;;2.8;2.2;;;;;;;4.18;100;946.6264;;;;
2023/12/15 02:12:35;;;;;;;2.1;1.7;;;;;;;4.2;100;946.6454;;;;
2023/12/15 02:15:08;;;;;;;2.2;2;;;;;;;4.14;100;946.7017;;;;
2023/12/15 02:17:31;;;;;;;3.4;2.2;;;;;;;4.11;100;946.6902;;;;
2023/12/15 02:20:00;;;;;;;3;2.2;;;;;;;4.16;100;946.7876;;;;
2023/12/15 02:22:25;;;;;;;2.8;2.3;;;;;;;4.17;100;946.8369;;;;
2023/12/15 02:24:55;;;;;;;8;4.6;;;;;;;4.24;100;946.8849;;;;
2023/12/15 02:27:26;;;;;;;52.1;29.1;;;;;;;4.19;100;946.8575;;;;
2023/12/15 02:29:53;;;;;;;26.6;15.8;;;;;;;4.24;100;946.7673;;;;
2023/12/15 02:32:18;;;;;;;11.9;7.3;;;;;;;4.18;100;946.8597;;;;
2023/12/15 02:34:45;;;;;;;5.5;3.7;;;;;;;4.16;100;946.865;;;;
2023/12/15 02:37:10;;;;;;;4.2;3;;;;;;;4.18;100;946.8943;;;;
2023/12/15 02:39:40;;;;;;;4.4;3.3;;;;;;;4.2;100;946.9336;;;;
2023/12/15 02:42:05;;;;;;;3.2;2.9;;;;;;;4.18;100;946.9433;;;;
2023/12/15 02:44:30;;;;;;;5;3.6;;;;;;;4.12;100;946.9008;;;;
2023/12/15 02:46:56;;;;;;;4;2.9;;;;;;;4.11;100;946.9628;;;;
2023/12/15 02:49:21;;;;;;;4.1;3.1;;;;;;;4.09;100;946.9761;;;;
2023/12/15 02:51:49;;;;;;;4.3;3.1;;;;;;;4.13;100;946.9989;;;;
2023/12/15 02:54:14;;;;;;;4.2;3;;;;;;;4.2;100;947.0314;;;;
2023/12/15 02:56:40;;;;;;;3.4;3;;;;;;;4.15;100;947.1364;;;;
2023/12/15 02:59:11;;;;;;;3.6;2.6;;;;;;;4.11;100;947.173;;;;
2023/12/15 03:01:37;;;;;;;2.3;2.1;;;;;;;4.1;100;947.2134;;;;
2023/12/15 03:04:06;;;;;;;2.9;2.4;;;;;;;4.12;100;947.2957;;;;
2023/12/15 03:06:36;;;;;;;3.3;2.4;;;;;;;4.15;100;947.1925;;;;
2023/12/15 03:09:01;;;;;;;3;2.7;;;;;;;4.13;100;947.3409;;;;
2023/12/15 03:11:27;;;;;;;2.8;2.5;;;;;;;4.09;100;947.2992;;;;
2023/12/15 03:13:52;;;;;;;3;2.6;;;;;;;4.13;100;947.3043;;;;
2023/12/15 03:16:21;;;;;;;5;2.7;;;;;;;4.13;100;947.3514;;;;
2023/12/15 03:18:46;;;;;;;3.6;2.8;;;;;;;4.13;100;947.3725;;;;
2023/12/15 03:21:11;;;;;;;4.3;3.7;;;;;;;4.09;100;947.4258;;;;
2023/12/15 03:23:39;;;;;;;4.1;3.5;;;;;;;4.08;100;947.305;;;;
2023/12/15 03:26:04;;;;;;;5;3.6;;;;;;;4.16;100;947.4316;;;;
2023/12/15 03:28:31;;;;;;;4.5;3.8;;;;;;;4.25;100;947.4537;;;;
2023/12/15 03:30:56;;;;;;;5.1;4.1;;;;;;;4.16;100;947.5247;;;;
2023/12/15 03:33:24;;;;;;;4.7;3.8;;;;;;;4.13;100;947.5491;;;;
2023/12/15 03:35:49;;;;;;;5.9;4;;;;;;;4.12;100;947.5542;;;;
2023/12/15 03:38:14;;;;;;;5.3;4;;;;;;;4.1;100;947.6125;;;;
2023/12/15 03:40:42;;;;;;;5;3.6;;;;;;;4.16;100;947.6964;;;;
2023/12/15 03:43:07;;;;;;;4.6;3.6;;;;;;;4.17;100;947.755;;;;
2023/12/15 03:45:36;;;;;;;6.6;4.4;;;;;;;4.12;100;947.6652;;;;
2023/12/15 03:48:01;;;;;;;4.9;3.7;;;;;;;4.08;100;947.7014;;;;
2023/12/15 03:50:29;;;;;;;4.6;3.8;;;;;;;4.19;100;947.7919;;;;
2023/12/15 03:52:56;;;;;;;5.3;4.2;;;;;;;4.3;99.99219;947.8106;;;;
2023/12/15 03:55:22;;;;;;;9.6;5.9;;;;;;;4.21;100;947.8247;;;;
2023/12/15 03:57:47;;;;;;;7.6;5.5;;;;;;;4.24;100;947.8805;;;;
2023/12/15 04:02:37;;;;;;;5.1;4.1;;;;;;;4.29;99.74512;947.9221;;;;
2023/12/15 04:05:07;;;;;;;6;3.9;;;;;;;4.34;99.95801;947.9583;;;;
2023/12/15 04:07:32;;;;;;;4.2;3.3;;;;;;;4.32;100;947.937;;;;
2023/12/15 04:09:57;;;;;;;4.6;3.8;;;;;;;4.25;100;948.0773;;;;
2023/12/15 04:12:28;;;;;;;4.6;4;;;;;;;4.3;100;948.0367;;;;
2023/12/15 04:14:53;;;;;;;5.3;4;;;;;;;4.19;100;948.1306;;;;
2023/12/15 04:17:22;;;;;;;5;3.7;;;;;;;4.21;100;948.0691;;;;
2023/12/15 04:19:47;;;;;;;3.8;3;;;;;;;4.27;100;948.3385;;;;
2023/12/15 04:22:18;;;;;;;3.6;2.5;;;;;;;4.3;100;948.3272;;;;
2023/12/15 04:24:42;;;;;;;3;2.5;;;;;;;4.35;99.625;948.4063;;;;
2023/12/15 04:27:08;;;;;;;2.9;2.2;;;;;;;4.33;99.36914;948.3505;;;;
2023/12/15 04:29:40;;;;;;;2.8;2.3;;;;;;;4.26;99.70508;948.3765;;;;
2023/12/15 04:32:06;;;;;;;2.5;2.1;;;;;;;4.43;99.33789;948.3497;;;;
2023/12/15 04:34:33;;;;;;;2.7;2.3;;;;;;;4.43;98.92383;948.4894;;;;
2023/12/15 04:36:58;;;;;;;2.3;1.8;;;;;;;4.25;99.94824;948.5208;;;;
2023/12/15 04:39:31;;;;;;;2;1.8;;;;;;;4.25;100;948.6328;;;;
2023/12/15 04:42:01;;;;;;;2.5;2.1;;;;;;;4.27;99.80664;948.5754;;;;
2023/12/15 04:44:28;;;;;;;3;2.7;;;;;;;4.32;99.86426;948.6158;;;;
2023/12/15 04:46:58;;;;;;;3.5;2.6;;;;;;;4.23;100;948.7628;;;;
2023/12/15 04:49:23;;;;;;;3.1;2.6;;;;;;;4.26;99.28613;948.6625;;;;
2023/12/15 04:51:48;;;;;;;3.5;2.7;;;;;;;4.21;99.05078;948.7405;;;;
2023/12/15 04:54:20;;;;;;;4.5;3.1;;;;;;;4.26;99.18555;948.6404;;;;
2023/12/15 04:56:45;;;;;;;3.5;3;;;;;;;4.09;99.4375;948.7838;;;;
2023/12/15 04:59:11;;;;;;;4.3;3.2;;;;;;;4.11;99.39941;948.8031;;;;
2023/12/15 05:01:41;;;;;;;4.7;3.1;;;;;;;4.15;99.21582;948.7828;;;;
2023/12/15 05:04:10;;;;;;;3.6;3;;;;;;;4.1;99.34082;948.7483;;;;
2023/12/15 05:06:35;;;;;;;2.9;2.5;;;;;;;4.09;99.04395;948.8083;;;;
2023/12/15 05:09:00;;;;;;;2.8;2.2;;;;;;;4.05;98.65137;948.795;;;;
2023/12/15 05:11:28;;;;;;;2.2;2;;;;;;;3.86;99.45215;948.8909;;;;
2023/12/15 05:13:53;;;;;;;2.4;1.9;;;;;;;4.12;98.71484;948.9653;;;;
2023/12/15 05:16:23;;;;;;;2.9;2.2;;;;;;;4.05;98.86914;949.0452;;;;
2023/12/15 05:18:49;;;;;;;3;2.5;;;;;;;4.03;98.88574;949.0417;;;;
2023/12/15 05:21:15;;;;;;;4;2.4;;;;;;;3.92;99.26465;949.028;;;;
2023/12/15 05:23:41;;;;;;;3.5;2.7;;;;;;;3.96;99.34082;949.0985;;;;
2023/12/15 05:26:07;;;;;;;4;3.2;;;;;;;4;99.24805;949.0411;;;;
2023/12/15 05:28:32;;;;;;;4.4;2.9;;;;;;;3.78;99.68066;948.9965;;;;
2023/12/15 05:30:59;;;;;;;3.3;2.7;;;;;;;3.84;99.41211;949.1355;;;;
2023/12/15 05:33:25;;;;;;;4.7;3.7;;;;;;;3.69;100;949.1945;;;;
2023/12/15 05:35:55;;;;;;;4.4;3.3;;;;;;;3.54;100;949.2233;;;;
2023/12/15 05:38:22;;;;;;;4;3.2;;;;;;;3.6;100;949.2687;;;;
2023/12/15 05:40:53;;;;;;;5;3.5;;;;;;;3.63;100;949.3063;;;;
2023/12/15 05:43:21;;;;;;;5.8;4;;;;;;;3.77;99.98047;949.3599;;;;
2023/12/15 05:45:46;;;;;;;5.8;4.4;;;;;;;3.7;99.43945;949.2092;;;;
2023/12/15 05:48:12;;;;;;;6.5;4.1;;;;;;;3.63;100;949.2244;;;;
2023/12/15 05:50:41;;;;;;;5.2;4.1;;;;;;;3.65;100;949.4277;;;;
2023/12/15 05:53:06;;;;;;;5.2;4.4;;;;;;;3.68;99.94922;949.493;;;;
2023/12/15 05:55:40;;;;;;;6.5;4.9;;;;;;;3.72;99.87988;949.544;;;;
2023/12/15 05:58:10;;;;;;;5.9;4.5;;;;;;;3.55;100;949.5672;;;;
2023/12/15 06:00:35;;;;;;;5.9;4.3;;;;;;;3.47;100;949.5259;;;;
2023/12/15 06:03:07;;;;;;;6.3;4.3;;;;;;;3.53;100;949.7202;;;;
2023/12/15 06:05:37;;;;;;;6;4.1;;;;;;;3.49;100;949.7623;;;;
2023/12/15 06:08:05;;;;;;;5.7;4.2;;;;;;;3.47;100;949.7729;;;;
2023/12/15 06:10:29;;;;;;;7.8;5;;;;;;;3.62;100;949.8549;;;;
2023/12/15 06:12:57;;;;;;;7.1;5.6;;;;;;;3.71;100;949.9955;;;;
2023/12/15 06:15:21;;;;;;;7;5.1;;;;;;;3.78;99.75977;950.0489;;;;
2023/12/15 06:17:48;;;;;;;6.9;5.2;;;;;;;3.83;99.23242;950.1049;;;;
2023/12/15 06:20:13;;;;;;;6;4.6;;;;;;;3.8;98.99023;950.1602;;;;
2023/12/15 06:22:43;;;;;;;7;4.8;;;;;;;3.88;98.75098;950.1516;;;;
2023/12/15 06:25:14;;;;;;;5.7;4.2;;;;;;;3.84;98.3125;950.2954;;;;
2023/12/15 06:27:45;;;;;;;6.1;4.7;;;;;;;3.76;98.70996;950.405;;;;
2023/12/15 06:30:15;;;;;;;6.7;4.5;;;;;;;3.59;99.33496;950.4041;;;;
2023/12/15 06:32:40;;;;;;;5.5;4.2;;;;;;;3.7;99.14453;950.4981;;;;
2023/12/15 06:35:07;;;;;;;5.3;3.9;;;;;;;3.63;99.28516;950.5362;;;;
2023/12/15 06:37:32;;;;;;;5.6;4;;;;;;;3.38;99.86816;950.466;;;;
2023/12/15 06:40:00;;;;;;;5.2;3.6;;;;;;;3.51;99.30273;950.565;;;;
2023/12/15 06:42:25;;;;;;;4.3;3.7;;;;;;;3.59;99.05469;950.697;;;;
2023/12/15 06:44:54;;;;;;;5;3.5;;;;;;;3.58;98.91504;950.7456;;;;
2023/12/15 06:47:19;;;;;;;5;3.4;;;;;;;3.59;98.67969;950.7935;;;;
2023/12/15 06:49:49;;;;;;;4.5;3.6;;;;;;;3.45;99.05273;950.8086;;;;
2023/12/15 06:52:15;;;;;;;6.7;4.1;;;;;;;3.35;99.9502;950.7957;;;;
2023/12/15 06:54:43;;;;;;;5.6;3.9;;;;;;;3.38;99.89063;950.7834;;;;
2023/12/15 06:57:09;;;;;;;5.2;3.5;;;;;;;3.45;99.29004;950.8356;;;;
2023/12/15 06:59:36;;;;;;;5.5;3.3;;;;;;;3.57;99.16016;950.9408;;;;
2023/12/15 07:02:06;;;;;;;4.4;3.6;;;;;;;3.49;99.42188;950.9528;;;;
2023/12/15 07:04:31;;;;;;;6.4;3.5;;;;;;;3.41;99.88379;951.0676;;;;
2023/12/15 07:07:01;;;;;;;5.2;4.1;;;;;;;3.5;99.27832;951.1739;;;;
2023/12/15 07:09:26;;;;;;;4.8;3.7;;;;;;;3.43;99.50879;951.2092;;;;
2023/12/15 07:11:52;;;;;;;4.3;3.1;;;;;;;3.34;99.57715;951.1848;;;;
2023/12/15 07:14:17;;;;;;;4.6;3.1;;;;;;;3.19;100;951.2749;;;;
2023/12/15 07:16:46;;;;;;;4;3.2;;;;;;;3.31;100;951.2397;;;;
2023/12/15 07:19:11;;;;;;;4.6;3.4;;;;;;;3.42;99.32715;951.4045;;;;
2023/12/15 07:21:36;;;;;;;5.2;3.8;;;;;;;3.46;99.05469;951.4311;;;;
2023/12/15 07:24:06;;;;;;;5.1;3.4;;;;;;;3.51;98.78613;951.5002;;;;
2023/12/15 07:26:35;;;;;;;5.3;3.9;;;;;;;3.49;99.00684;951.4678;;;;
2023/12/15 07:29:00;;;;;;;6.2;4.1;;;;;;;3.43;99.51953;951.4974;;;;
2023/12/15 07:31:27;;;;;;;4.8;3.5;;;;;;;3.62;98.92383;951.625;;;;
2023/12/15 07:33:53;;;;;;;5.1;3.5;;;;;;;3.61;98.37305;951.7003;;;;
2023/12/15 07:36:22;;;;;;;5.7;3.6;;;;;;;3.51;98.39258;951.6838;;;;
2023/12/15 07:38:51;;;;;;;6;3.9;;;;;;;3.58;98.73535;951.72;;;;
2023/12/15 07:41:17;;;;;;;5.8;4;;;;;;;3.5;98.95215;951.6936;;;;
2023/12/15 07:43:45;;;;;;;6.3;4.1;;;;;;;3.65;98.4375;951.7402;;;;
2023/12/15 07:46:08;;;;;;;6.2;4.3;;;;;;;3.81;97.73145;951.6929;;;;
2023/12/15 07:48:46;;;;;;;5.3;4.2;;;;;;;3.75;97.51855;951.8555;;;;
2023/12/15 07:51:24;;;;;;;5.9;4.3;;;;;;;3.77;97.72266;951.9203;;;;
2023/12/15 07:53:51;;;;;;;5.1;3.8;;;;;;;3.8;97.08887;951.9942;;;;
2023/12/15 07:56:16;;;;;;;6.8;4.4;;;;;;;3.77;97.45508;951.9875;;;;
2023/12/15 07:58:41;;;;;;;6.4;4.2;;;;;;;3.72;97.94629;952.0432;;;;
2023/12/15 08:01:06;;;;;;;4.6;3.5;;;;;;;3.72;97.54395;952.0617;;;;
2023/12/15 08:03:31;;;;;;;4.6;3;;;;;;;3.82;96.98047;952.1044;;;;
2023/12/15 08:06:01;;;;;;;6.4;3.4;;;;;;;3.85;96.71875;952.1298;;;;
2023/12/15 08:08:25;;;;;;;3.7;3.2;;;;;;;3.84;96.45605;952.0731;;;;
2023/12/15 08:11:04;;;;;;;5.2;3.8;;;;;;;3.88;96.47949;952.1428;;;;
2023/12/15 08:13:29;;;;;;;5.7;4.1;;;;;;;3.93;96.63379;952.1713;;;;
2023/12/15 08:15:55;;;;;;;4.4;3.5;;;;;;;3.94;96.62695;952.1816;;;;
2023/12/15 08:18:30;;;;;;;4.5;3.8;;;;;;;3.98;96.62598;952.1802;;;;
2023/12/15 08:20:55;;;;;;;5.1;3.9;;;;;;;4.08;96.16309;952.2606;;;;
2023/12/15 08:23:24;;;;;;;5.1;3.5;;;;;;;3.98;96.1084;952.351;;;;
2023/12/15 08:25:58;;;;;;;4.5;3.4;;;;;;;3.92;96.22949;952.4216;;;;
2023/12/15 08:28:25;;;;;;;7.7;4;;;;;;;4.04;95.70508;952.4689;;;;
2023/12/15 08:30:50;;;;;;;5;3.6;;;;;;;4.13;94.50977;952.5289;;;;
2023/12/15 08:33:21;;;;;;;5.9;4.1;;;;;;;3.96;95.18066;952.5695;;;;
2023/12/15 08:35:52;;;;;;;4.4;3.5;;;;;;;3.88;96.07324;952.6847;;;;
2023/12/15 08:38:17;;;;;;;4.3;3.6;;;;;;;4.01;95.36133;952.7313;;;;
2023/12/15 08:40:42;;;;;;;5.6;4.5;;;;;;;4.07;94.82422;952.738;;;;
2023/12/15 08:43:08;;;;;;;4.4;4;;;;;;;3.98;95.64746;952.9137;;;;
2023/12/15 08:45:34;;;;;;;3.8;3.2;;;;;;;3.96;95.86621;952.9292;;;;
2023/12/15 08:48:04;;;;;;;5.8;3.9;;;;;;;4.1;95.52539;952.9743;;;;
2023/12/15 08:50:30;;;;;;;4.5;3.2;;;;;;;4.11;93.89844;952.9426;;;;
2023/12/15 08:52:55;;;;;;;4.1;3.2;;;;;;;4.07;93.11426;952.9949;;;;
2023/12/15 08:55:22;;;;;;;3.2;2.7;;;;;;;4.2;91.26367;952.9595;;;;
2023/12/15 08:57:49;;;;;;;4.3;2.8;;;;;;;3.99;91.39746;953.0057;;;;
2023/12/15 09:00:16;;;;;;;5.3;3.1;;;;;;;4.01;90.99805;953.022;;;;
2023/12/15 09:02:41;;;;;;;2.7;2.4;;;;;;;4.05;91.80469;952.973;;;;
2023/12/15 09:05:13;;;;;;;3.4;2.9;;;;;;;4.14;90.65332;953.1232;;;;
2023/12/15 09:07:38;;;;;;;5.4;3.9;;;;;;;4.17;90.26563;953.17;;;;
2023/12/15 09:10:04;;;;;;;4.1;3.1;;;;;;;4.25;89.27051;953.0691;;;;
2023/12/15 09:12:29;;;;;;;8.6;5;;;;;;;4.21;90.60156;953.2017;;;;
2023/12/15 09:14:56;;;;;;;18.7;9;;;;;;;4.19;91.59668;953.2598;;;;
2023/12/15 09:17:25;;;;;;;9.5;5.3;;;;;;;4.28;90.76172;953.23;;;;
2023/12/15 09:19:54;;;;;;;5.9;4;;;;;;;4.15;91.01367;953.2654;;;;
2023/12/15 09:22:19;;;;;;;5.6;4.1;;;;;;;4.23;90.85156;953.291;;;;
2023/12/15 09:24:47;;;;;;;5.9;3.8;;;;;;;4.31;91.17383;953.3381;;;;
2023/12/15 09:27:13;;;;;;;5.4;3.9;;;;;;;4.38;90.77148;953.3042;;;;
2023/12/15 09:29:39;;;;;;;6.1;4.6;;;;;;;4.36;92.31152;953.2473;;;;
2023/12/15 09:32:13;;;;;;;5.8;4.4;;;;;;;4.39;92.74512;953.2986;;;;
2023/12/15 09:34:40;;;;;;;5.1;3.8;;;;;;;4.55;92.02539;953.1875;;;;
2023/12/15 09:37:28;;;;;;;3.4;3;;;;;;;4.66;90.26758;953.2101;;;;
2023/12/15 09:39:42;;;;;;;3.9;3;;;;;;;4.64;90.59277;953.2266;;;;
2023/12/15 09:42:07;;;;;;;2.5;2.3;;;;;;;4.57;91.19629;953.3186;;;;
2023/12/15 09:44:35;;;;;;;4.5;3.1;;;;;;;4.58;91.9082;953.4059;;;;
2023/12/15 09:47:00;;;;;;;5;3.3;;;;;;;4.61;92.76953;953.4443;;;;
2023/12/15 09:49:27;;;;;;;3.8;2.9;;;;;;;4.71;93.41211;953.5336;;;;
2023/12/15 09:51:53;;;;;;;4.5;3.2;;;;;;;4.85;92.6084;953.456;;;;
2023/12/15 09:54:21;;;;;;;4.9;3.6;;;;;;;4.98;91.48633;953.3519;;;;
2023/12/15 09:56:46;;;;;;;4.6;3.2;;;;;;;5.19;90.63965;953.4022;;;;
2023/12/15 09:59:16;;;;;;;5.3;4.1;;;;;;;5.39;90.08398;953.4684;;;;
2023/12/15 10:01:45;;;;;;;7.7;5.6;;;;;;;5.38;88.3916;953.4849;;;;
2023/12/15 10:04:07;;;;;;;5.2;3.7;;;;;;;5.39;88.44824;953.4236;;;;
2023/12/15 10:06:32;;;;;;;4.2;2.2;;;;;;;5.36;85.91602;953.4917;;;;
2023/12/15 10:09:09;;;;;;;2.2;2;;;;;;;5.38;83.18945;953.4199;;;;
2023/12/15 10:11:32;;;;;;;2.7;2.3;;;;;;;5.48;83.05078;953.4483;;;;
2023/12/15 10:13:56;;;;;;;4.2;3.1;;;;;;;5.42;83.93164;953.4131;;;;
2023/12/15 10:16:27;;;;;;;3.1;2.7;;;;;;;5.48;82.72461;953.3658;;;;
2023/12/15 10:19:02;;;;;;;3.1;2.1;;;;;;;5.62;83.60938;953.3287;;;;
2023/12/15 10:21:31;;;;;;;3.2;1.6;;;;;;;5.85;81.85742;953.3488;;;;
2023/12/15 10:24:04;;;;;;;1.8;1.5;;;;;;;5.98;83.28223;953.3613;;;;
2023/12/15 10:26:36;;;;;;;2.3;2.1;;;;;;;6.1;82.2002;953.3689;;;;
2023/12/15 10:29:03;;;;;;;1.8;1.7;;;;;;;6.04;82.83203;953.3963;;;;
2023/12/15 10:31:35;;;;;;;1.6;1.4;;;;;;;6.05;83.70313;953.3959;;;;
2023/12/15 10:34:03;;;;;;;1.5;1.4;;;;;;;5.81;81.32031;953.4238;;;;
2023/12/15 10:36:30;;;;;;;1.5;1.4;;;;;;;5.73;80.42578;953.3822;;;;
2023/12/15 10:38:56;;;;;;;1.5;1.3;;;;;;;5.74;79.73633;953.3145;;;;
2023/12/15 10:41:26;;;;;;;1.4;1.3;;;;;;;5.78;80.89551;953.361;;;;
2023/12/15 10:43:51;;;;;;;1.2;1.1;;;;;;;5.79;82.37793;953.3636;;;;
2023/12/15 10:46:20;;;;;;;1.7;1.6;;;;;;;5.9;81.55176;953.3375;;;;
2023/12/15 10:48:46;;;;;;;3.2;2.3;;;;;;;5.96;83.14355;953.4253;;;;
2023/12/15 10:51:17;;;;;;;4;2.7;;;;;;;5.97;84.59277;953.4844;;;;
2023/12/15 10:53:44;;;;;;;3.5;2.4;;;;;;;6.02;83.38184;953.4158;;;;
2023/12/15 10:56:09;;;;;;;2.4;2.1;;;;;;;5.99;83.88477;953.4348;;;;
2023/12/15 10:58:50;;;;;;;2;1.8;;;;;;;5.96;82.72559;953.4308;;;;
2023/12/15 11:01:10;;;;;;;3.8;1.7;;;;;;;5.92;83.27246;953.5061;;;;
2023/12/15 11:03:35;;;;;;;1.6;1.4;;;;;;;5.84;82.36621;953.4601;;;;
2023/12/15 11:06:01;;;;;;;1.3;1.1;;;;;;;5.79;81.32813;953.4269;;;;
2023/12/15 11:08:31;;;;;;;2.3;1.6;;;;;;;5.83;80.66797;953.3772;;;;
2023/12/15 11:10:57;;;;;;;3.8;2.1;;;;;;;5.91;81.63379;953.4641;;;;
2023/12/15 11:13:24;;;;;;;2.7;2.1;;;;;;;6.04;83.60156;953.4543;;;;
2023/12/15 11:15:48;;;;;;;2.7;2.2;;;;;;;5.97;82.54883;953.4084;;;;
2023/12/15 11:18:13;;;;;;;1.6;1.5;;;;;;;6.02;82.37793;953.3513;;;;
2023/12/15 11:20:43;;;;;;;1.7;1.6;;;;;;;6.12;81.83008;953.3457;;;;
2023/12/15 11:23:10;;;;;;;2;1.6;;;;;;;6.02;83.41797;953.387;;;;
2023/12/15 11:25:36;;;;;;;2.1;1.8;;;;;;;5.97;83.61035;953.4338;;;;
2023/12/15 11:28:01;;;;;;;2.1;1.9;;;;;;;6.18;83.16504;953.4247;;;;
2023/12/15 11:30:26;;;;;;;1.9;1.7;;;;;;;6.28;83.82813;953.4177;;;;
2023/12/15 11:32:51;;;;;;;1.9;1.7;;;;;;;6.35;83.1416;953.4386;;;;
2023/12/15 11:35:20;;;;;;;1.6;1.5;;;;;;;6.43;82.08301;953.4562;;;;
2023/12/15 11:37:45;;;;;;;1.7;1.4;;;;;;;6.41;82.50781;953.4758;;;;
2023/12/15 11:40:18;;;;;;;1.2;1.1;;;;;;;6.37;81.7207;953.4378;;;;
2023/12/15 11:42:50;;;;;;;1.4;1.3;;;;;;;6.34;80.77637;953.4135;;;;
2023/12/15 11:45:11;;;;;;;1.4;1.3;;;;;;;6.35;81.21973;953.4852;;;;
2023/12/15 11:47:41;;;;;;;1.6;1.4;;;;;;;6.35;79.8623;953.4671;;;;
2023/12/15 11:50:19;;;;;;;1.8;1.4;;;;;;;6.33;79.06641;953.4398;;;;
2023/12/15 11:52:43;;;;;;;1.7;1.5;;;;;;;6.24;78.48438;953.4274;;;;
2023/12/15 11:55:13;;;;;;;1.6;1.4;;;;;;;6.23;78.78906;953.356;;;;
2023/12/15 11:57:41;;;;;;;2.1;1.6;;;;;;;6.2;78.96387;953.4526;;;;
2023/12/15 12:00:14;;;;;;;1.7;1.5;;;;;;;6.21;78.22852;953.425;;;;
2023/12/15 12:02:48;;;;;;;1.7;1.6;;;;;;;6.19;78.41895;953.415;;;;
2023/12/15 12:05:13;;;;;;;2.1;1.7;;;;;;;6.19;79.60645;953.416;;;;
2023/12/15 12:07:42;;;;;;;1.9;1.6;;;;;;;6.13;79.01758;953.4841;;;;
2023/12/15 12:10:08;;;;;;;1.5;1.4;;;;;;;6.1;79.36328;953.554;;;;
2023/12/15 12:12:32;;;;;;;2.1;1.5;;;;;;;6.08;78.70508;953.5314;;;;
2023/12/15 12:14:58;;;;;;;1.8;1.6;;;;;;;6.13;78.49805;953.621;;;;
2023/12/15 12:17:30;;;;;;;2.3;1.7;;;;;;;6.13;78.55469;953.5455;;;;
2023/12/15 12:19:56;;;;;;;2.1;1.9;;;;;;;6.12;79.0498;953.5918;;;;
2023/12/15 12:22:27;;;;;;;1.5;1.4;;;;;;;6.12;80.36328;953.6284;;;;
2023/12/15 12:24:57;;;;;;;2.2;1.5;;;;;;;6.15;79.21484;953.6639;;;;
2023/12/15 12:27:24;;;;;;;1.6;1.4;;;;;;;6.15;78.75195;953.6828;;;;
2023/12/15 12:29:49;;;;;;;1.6;1.3;;;;;;;6.18;79.69531;953.6794;;;;
2023/12/15 12:32:15;;;;;;;2.7;1.6;;;;;;;6.18;79.98926;953.6803;;;;
2023/12/15 12:34:41;;;;;;;1.5;1.4;;;;;;;6.18;80.66699;953.7271;;;;
2023/12/15 12:37:14;;;;;;;1.8;1.5;;;;;;;6.22;80.39258;953.7319;;;;
2023/12/15 12:39:42;;;;;;;2.1;1.7;;;;;;;6.22;80.66406;953.7118;;;;
2023/12/15 12:42:08;;;;;;;1.8;1.6;;;;;;;6.24;79.36719;953.7678;;;;
2023/12/15 12:44:32;;;;;;;2.9;1.8;;;;;;;6.23;80.17773;953.7828;;;;
2023/12/15 12:47:02;;;;;;;1.9;1.6;;;;;;;6.2;79.34766;953.774;;;;
2023/12/15 12:49:27;;;;;;;2;1.6;;;;;;;6.21;78.22852;953.7729;;;;
2023/12/15 12:51:52;;;;;;;3.2;1.7;;;;;;;6.18;79.02832;953.7863;;;;
2023/12/15 12:54:21;;;;;;;2.1;1.7;;;;;;;6.13;76.76953;953.814;;;;
2023/12/15 12:56:47;;;;;;;1.8;1.7;;;;;;;6.13;76.67871;953.8653;;;;
2023/12/15 12:59:17;;;;;;;1.9;1.7;;;;;;;6.07;77.92285;953.9004;;;;
2023/12/15 13:01:49;;;;;;;1.5;1.4;;;;;;;6.08;78.27539;953.9484;;;;
2023/12/15 13:04:14;;;;;;;4.8;2.6;;;;;;;6.08;79.04199;953.9417;;;;
2023/12/15 13:06:44;;;;;;;3.1;2.1;;;;;;;6.1;79.375;954.0497;;;;
2023/12/15 13:09:17;;;;;;;11.6;7.3;;;;;;;6.11;80.43848;954.0525;;;;
2023/12/15 13:11:37;;;;;;;13.6;8.1;;;;;;;6.08;80.72559;954.0627;;;;
2023/12/15 13:14:03;;;;;;;7.3;4.8;;;;;;;6.07;81.58398;954.0687;;;;
2023/12/15 13:16:32;;;;;;;3.2;2.6;;;;;;;6.07;82.14941;954.0614;;;;
2023/12/15 13:19:01;;;;;;;4.2;3;;;;;;;6.08;80.47852;954.1546;;;;
2023/12/15 13:21:32;;;;;;;11.9;6.6;;;;;;;6.05;79.9873;954.1523;;;;
2023/12/15 13:23:58;;;;;;;9.6;5;;;;;;;6.02;79.46289;954.142;;;;
2023/12/15 13:26:26;;;;;;;6.2;3.8;;;;;;;6.01;79.68555;954.15;;;;
2023/12/15 13:28:52;;;;;;;5.3;3.6;;;;;;;6.02;80.66992;954.1671;;;;
2023/12/15 13:31:17;;;;;;;5.2;3.1;;;;;;;6;82.42969;954.158;;;;
2023/12/15 13:33:47;;;;;;;10.3;5.8;;;;;;;6.02;83.9707;954.1057;;;;
2023/12/15 13:36:11;;;;;;;14.1;7.1;;;;;;;6;84.73438;954.14;;;;
2023/12/15 13:38:38;;;;;;;14;7.2;;;;;;;5.96;85.5293;954.1931;;;;
2023/12/15 13:41:03;;;;;;;13.8;6.8;;;;;;;5.99;85.96387;954.1591;;;;
2023/12/15 13:43:28;;;;;;;10.5;5.6;;;;;;;5.97;85.90332;954.1808;;;;
2023/12/15 13:45:56;;;;;;;7.1;5.1;;;;;;;5.91;87.0791;954.1013;;;;
2023/12/15 13:48:22;;;;;;;7.5;4.5;;;;;;;5.93;87.56641;954.1897;;;;
2023/12/15 13:50:47;;;;;;;5.5;4;;;;;;;5.95;87.96582;954.1259;;;;
2023/12/15 13:53:16;;;;;;;5.5;4.3;;;;;;;5.95;88.05566;954.2043;;;;
2023/12/15 13:55:46;;;;;;;4.5;2.8;;;;;;;5.97;87.83496;954.2788;;;;
2023/12/15 13:58:11;;;;;;;3.3;2.4;;;;;;;5.92;87.30469;954.2332;;;;
2023/12/15 14:00:36;;;;;;;2.8;1.9;;;;;;;5.78;87.75098;954.3245;;;;
2023/12/15 14:03:06;;;;;;;2.2;2;;;;;;;5.82;88.41406;954.3261;;;;
2023/12/15 14:05:35;;;;;;;2.9;2.2;;;;;;;5.86;88.12988;954.3892;;;;
2023/12/15 14:08:00;;;;;;;3.5;2.7;;;;;;;5.85;88.78125;954.384;;;;
2023/12/15 14:10:26;;;;;;;2.3;2.1;;;;;;;5.85;88.99512;954.4065;;;;
2023/12/15 14:12:55;;;;;;;2;1.7;;;;;;;5.82;89.68945;954.4013;;;;
2023/12/15 14:15:20;;;;;;;3.6;1.7;;;;;;;5.85;90.03418;954.377;;;;
2023/12/15 14:17:46;;;;;;;2.6;1.8;;;;;;;5.76;90.5127;954.4442;;;;
2023/12/15 14:20:24;;;;;;;2.4;1.6;;;;;;;5.75;91.01855;954.4747;;;;
2023/12/15 14:22:56;;;;;;;3.9;2.5;;;;;;;5.74;90.56445;954.4669;;;;
2023/12/15 14:25:29;;;;;;;3.3;3;;;;;;;5.68;90.63281;954.5112;;;;
2023/12/15 14:27:59;;;;;;;4.4;4;;;;;;;5.66;90.88672;954.5463;;;;
2023/12/15 14:30:24;;;;;;;3.4;3;;;;;;;5.67;90.89941;954.5933;;;;
2023/12/15 14:32:52;;;;;;;2.8;2.1;;;;;;;5.63;90.98242;954.6492;;;;
2023/12/15 14:35:20;;;;;;;3.7;2.2;;;;;;;5.6;90.9541;954.6987;;;;
2023/12/15 14:37:50;;;;;;;4.9;2.7;;;;;;;5.57;90.70898;954.6722;;;;
2023/12/15 14:40:16;;;;;;;3.3;2.3;;;;;;;5.56;90.49316;954.701;;;;
2023/12/15 14:42:44;;;;;;;3.3;1.9;;;;;;;5.51;91.03613;954.7558;;;;
2023/12/15 14:45:13;;;;;;;3.5;2;;;;;;;5.57;90.91211;954.7237;;;;
2023/12/15 14:47:39;;;;;;;2.6;1.9;;;;;;;5.53;91.45801;954.7751;;;;
2023/12/15 14:50:14;;;;;;;6;3.6;;;;;;;5.54;91.59473;954.8169;;;;
2023/12/15 14:52:40;;;;;;;5.9;4.2;;;;;;;5.51;92.1416;954.7617;;;;
2023/12/15 14:55:15;;;;;;;9.5;5.4;;;;;;;5.46;92.44824;954.6736;;;;
2023/12/15 14:57:41;;;;;;;7.7;5.1;;;;;;;5.37;93.25;954.7608;;;;
2023/12/15 15:00:16;;;;;;;9.9;5.7;;;;;;;5.31;93.67676;954.7587;;;;
2023/12/15 15:02:51;;;;;;;11.1;5.9;;;;;;;5.23;93.88574;954.8199;;;;
2023/12/15 15:05:20;;;;;;;14;7.6;;;;;;;5.17;94.32324;954.8503;;;;